sensor_id;sensor_type;location;lat;lon;timestamp;P1;durP1;ratioP1;P2;durP2;ratioP2
4353;SDS011;11018;51.258;6.806;2023-05-07T00:00:19;9.70;;;6.53;;
4353;SDS011;11018;51.258;6.806;2023-05-07T00:02:45;10.52;;;6.50;;
4353;SDS011;11018;51.258;6.806;2023-05-07T00:05:11;8.95;;;6.32;;
4353;SDS011;11018;51.258;6.806;2023-05-07T00:07:37;10.18;;;7.68;;
4353;SDS011;11018;51.258;6.806;2023-05-07T00:10:03;10.35;;;6.88;;
4353;SDS011;11018;51.258;6.806;2023-05-07T00:12:29;9.57;;;6.00;;
4353;SDS011;11018;51.258;6.806;2023-05-07T00:14:58;9.45;;;6.18;;
4353;SDS011;11018;51.258;6.806;2023-05-07T00:17:25;10.57;;;6.60;;
4353;SDS011;11018;51.258;6.806;2023-05-07T00:19:50;9.60;;;6.70;;
4353;SDS011;11018;51.258;6.806;2023-05-07T00:22:16;10.50;;;6.50;;
4353;SDS011;11018;51.258;6.806;2023-05-07T00:24:42;11.40;;;6.67;;
4353;SDS011;11018;51.258;6.806;2023-05-07T00:27:07;10.98;;;6.40;;
4353;SDS011;11018;51.258;6.806;2023-05-07T00:29:33;8.07;;;6.22;;
4353;SDS011;11018;51.258;6.806;2023-05-07T00:31:59;10.27;;;6.47;;
4353;SDS011;11018;51.258;6.806;2023-05-07T00:34:24;8.18;;;6.30;;
4353;SDS011;11018;51.258;6.806;2023-05-07T00:36:50;9.30;;;6.77;;
4353;SDS011;11018;51.258;6.806;2023-05-07T00:39:15;10.00;;;6.50;;
4353;SDS011;11018;51.258;6.806;2023-05-07T00:41:41;9.00;;;6.30;;
4353;SDS011;11018;51.258;6.806;2023-05-07T00:44:07;8.43;;;6.60;;
4353;SDS011;11018;51.258;6.806;2023-05-07T00:46:32;7.50;;;6.30;;
4353;SDS011;11018;51.258;6.806;2023-05-07T00:48:58;7.85;;;6.50;;
4353;SDS011;11018;51.258;6.806;2023-05-07T00:51:25;10.07;;;6.20;;
4353;SDS011;11018;51.258;6.806;2023-05-07T00:53:52;11.00;;;6.33;;
4353;SDS011;11018;51.258;6.806;2023-05-07T00:56:18;8.85;;;6.50;;
4353;SDS011;11018;51.258;6.806;2023-05-07T00:58:45;10.30;;;6.90;;
4353;SDS011;11018;51.258;6.806;2023-05-07T01:01:11;11.73;;;7.45;;
4353;SDS011;11018;51.258;6.806;2023-05-07T01:03:36;13.10;;;7.80;;
4353;SDS011;11018;51.258;6.806;2023-05-07T01:06:02;10.27;;;7.10;;
4353;SDS011;11018;51.258;6.806;2023-05-07T01:08:29;9.45;;;6.53;;
4353;SDS011;11018;51.258;6.806;2023-05-07T01:10:57;10.77;;;7.10;;
4353;SDS011;11018;51.258;6.806;2023-05-07T01:13:23;10.50;;;7.10;;
4353;SDS011;11018;51.258;6.806;2023-05-07T01:15:49;9.67;;;7.27;;
4353;SDS011;11018;51.258;6.806;2023-05-07T01:18:15;9.33;;;7.23;;
4353;SDS011;11018;51.258;6.806;2023-05-07T01:20:41;10.40;;;7.17;;
4353;SDS011;11018;51.258;6.806;2023-05-07T01:23:07;7.55;;;6.63;;
4353;SDS011;11018;51.258;6.806;2023-05-07T01:25:33;7.90;;;5.63;;
4353;SDS011;11018;51.258;6.806;2023-05-07T01:27:59;10.35;;;6.22;;
4353;SDS011;11018;51.258;6.806;2023-05-07T01:30:26;11.20;;;6.85;;
4353;SDS011;11018;51.258;6.806;2023-05-07T01:32:55;7.05;;;6.03;;
4353;SDS011;11018;51.258;6.806;2023-05-07T01:35:27;9.90;;;6.30;;
4353;SDS011;11018;51.258;6.806;2023-05-07T01:37:57;6.43;;;5.60;;
4353;SDS011;11018;51.258;6.806;2023-05-07T01:40:23;10.50;;;6.10;;
4353;SDS011;11018;51.258;6.806;2023-05-07T01:42:50;11.35;;;6.90;;
4353;SDS011;11018;51.258;6.806;2023-05-07T01:45:15;9.18;;;6.32;;
4353;SDS011;11018;51.258;6.806;2023-05-07T01:47:41;12.73;;;6.15;;
4353;SDS011;11018;51.258;6.806;2023-05-07T01:50:07;10.10;;;6.53;;
4353;SDS011;11018;51.258;6.806;2023-05-07T01:52:35;8.88;;;6.03;;
4353;SDS011;11018;51.258;6.806;2023-05-07T01:55:02;8.38;;;5.47;;
4353;SDS011;11018;51.258;6.806;2023-05-07T01:57:28;9.25;;;5.88;;
4353;SDS011;11018;51.258;6.806;2023-05-07T01:59:54;8.50;;;6.40;;
4353;SDS011;11018;51.258;6.806;2023-05-07T02:02:19;6.77;;;5.70;;
4353;SDS011;11018;51.258;6.806;2023-05-07T02:04:45;6.13;;;5.07;;
4353;SDS011;11018;51.258;6.806;2023-05-07T02:07:10;7.07;;;4.80;;
4353;SDS011;11018;51.258;6.806;2023-05-07T02:09:36;12.17;;;6.70;;
4353;SDS011;11018;51.258;6.806;2023-05-07T02:12:03;7.13;;;5.20;;
4353;SDS011;11018;51.258;6.806;2023-05-07T02:14:29;5.90;;;4.63;;
4353;SDS011;11018;51.258;6.806;2023-05-07T02:16:54;5.40;;;4.90;;
4353;SDS011;11018;51.258;6.806;2023-05-07T02:19:20;10.20;;;5.20;;
4353;SDS011;11018;51.258;6.806;2023-05-07T02:21:46;5.93;;;4.75;;
4353;SDS011;11018;51.258;6.806;2023-05-07T02:24:12;5.90;;;4.20;;
4353;SDS011;11018;51.258;6.806;2023-05-07T02:26:39;7.50;;;4.00;;
4353;SDS011;11018;51.258;6.806;2023-05-07T02:29:05;6.00;;;4.25;;
4353;SDS011;11018;51.258;6.806;2023-05-07T02:31:30;6.10;;;4.90;;
4353;SDS011;11018;51.258;6.806;2023-05-07T02:33:56;9.70;;;5.00;;
4353;SDS011;11018;51.258;6.806;2023-05-07T02:36:21;5.57;;;4.60;;
4353;SDS011;11018;51.258;6.806;2023-05-07T02:38:47;5.80;;;4.90;;
4353;SDS011;11018;51.258;6.806;2023-05-07T02:41:12;8.18;;;4.43;;
4353;SDS011;11018;51.258;6.806;2023-05-07T02:43:38;6.77;;;5.37;;
4353;SDS011;11018;51.258;6.806;2023-05-07T02:46:04;12.20;;;5.07;;
4353;SDS011;11018;51.258;6.806;2023-05-07T02:48:31;7.85;;;5.88;;
4353;SDS011;11018;51.258;6.806;2023-05-07T02:50:57;9.45;;;6.10;;
4353;SDS011;11018;51.258;6.806;2023-05-07T02:53:23;8.93;;;5.07;;
4353;SDS011;11018;51.258;6.806;2023-05-07T02:55:55;8.05;;;4.93;;
4353;SDS011;11018;51.258;6.806;2023-05-07T02:58:21;5.70;;;4.70;;
4353;SDS011;11018;51.258;6.806;2023-05-07T03:00:47;6.03;;;4.37;;
4353;SDS011;11018;51.258;6.806;2023-05-07T03:03:13;6.17;;;4.47;;
4353;SDS011;11018;51.258;6.806;2023-05-07T03:05:39;5.82;;;5.00;;
4353;SDS011;11018;51.258;6.806;2023-05-07T03:08:05;5.97;;;5.05;;
4353;SDS011;11018;51.258;6.806;2023-05-07T03:10:31;7.57;;;5.00;;
4353;SDS011;11018;51.258;6.806;2023-05-07T03:12:57;7.05;;;4.85;;
4353;SDS011;11018;51.258;6.806;2023-05-07T03:15:22;5.80;;;4.70;;
4353;SDS011;11018;51.258;6.806;2023-05-07T03:17:48;6.33;;;4.87;;
4353;SDS011;11018;51.258;6.806;2023-05-07T03:20:14;5.63;;;5.07;;
4353;SDS011;11018;51.258;6.806;2023-05-07T03:22:39;9.17;;;5.20;;
4353;SDS011;11018;51.258;6.806;2023-05-07T03:25:05;9.77;;;5.20;;
4353;SDS011;11018;51.258;6.806;2023-05-07T03:27:32;8.73;;;6.00;;
4353;SDS011;11018;51.258;6.806;2023-05-07T03:29:57;7.70;;;5.10;;
4353;SDS011;11018;51.258;6.806;2023-05-07T03:32:23;8.30;;;5.00;;
4353;SDS011;11018;51.258;6.806;2023-05-07T03:34:49;8.10;;;4.90;;
4353;SDS011;11018;51.258;6.806;2023-05-07T03:37:14;9.70;;;4.60;;
4353;SDS011;11018;51.258;6.806;2023-05-07T03:39:40;7.70;;;4.90;;
4353;SDS011;11018;51.258;6.806;2023-05-07T03:42:05;5.80;;;5.07;;
4353;SDS011;11018;51.258;6.806;2023-05-07T03:44:31;6.82;;;5.20;;
4353;SDS011;11018;51.258;6.806;2023-05-07T03:46:56;6.47;;;4.40;;
4353;SDS011;11018;51.258;6.806;2023-05-07T03:49:22;5.90;;;4.93;;
4353;SDS011;11018;51.258;6.806;2023-05-07T03:51:47;5.07;;;4.10;;
4353;SDS011;11018;51.258;6.806;2023-05-07T03:54:13;6.10;;;4.57;;
4353;SDS011;11018;51.258;6.806;2023-05-07T03:56:38;6.57;;;4.40;;
4353;SDS011;11018;51.258;6.806;2023-05-07T03:59:04;5.10;;;4.00;;
4353;SDS011;11018;51.258;6.806;2023-05-07T04:01:29;4.73;;;4.23;;
4353;SDS011;11018;51.258;6.806;2023-05-07T04:03:55;9.40;;;5.30;;
4353;SDS011;11018;51.258;6.806;2023-05-07T04:06:20;6.55;;;4.90;;
4353;SDS011;11018;51.258;6.806;2023-05-07T04:08:46;5.83;;;4.50;;
4353;SDS011;11018;51.258;6.806;2023-05-07T04:11:12;6.00;;;3.83;;
4353;SDS011;11018;51.258;6.806;2023-05-07T04:13:37;4.20;;;3.80;;
4353;SDS011;11018;51.258;6.806;2023-05-07T04:16:03;6.00;;;4.72;;
4353;SDS011;11018;51.258;6.806;2023-05-07T04:18:30;6.57;;;4.80;;
4353;SDS011;11018;51.258;6.806;2023-05-07T04:20:55;5.55;;;4.22;;
4353;SDS011;11018;51.258;6.806;2023-05-07T04:23:21;5.93;;;4.10;;
4353;SDS011;11018;51.258;6.806;2023-05-07T04:25:47;6.20;;;4.53;;
4353;SDS011;11018;51.258;6.806;2023-05-07T04:28:12;6.60;;;4.90;;
4353;SDS011;11018;51.258;6.806;2023-05-07T04:30:38;6.15;;;4.78;;
4353;SDS011;11018;51.258;6.806;2023-05-07T04:33:04;5.22;;;4.10;;
4353;SDS011;11018;51.258;6.806;2023-05-07T04:35:31;5.72;;;4.00;;
4353;SDS011;11018;51.258;6.806;2023-05-07T04:37:57;5.30;;;4.00;;
4353;SDS011;11018;51.258;6.806;2023-05-07T04:40:22;3.93;;;3.30;;
4353;SDS011;11018;51.258;6.806;2023-05-07T04:42:48;6.10;;;3.50;;
4353;SDS011;11018;51.258;6.806;2023-05-07T04:45:14;6.28;;;3.50;;
4353;SDS011;11018;51.258;6.806;2023-05-07T04:47:40;7.25;;;3.50;;
4353;SDS011;11018;51.258;6.806;2023-05-07T04:50:08;5.63;;;3.30;;
4353;SDS011;11018;51.258;6.806;2023-05-07T04:52:34;3.75;;;3.40;;
4353;SDS011;11018;51.258;6.806;2023-05-07T04:55:00;4.60;;;3.20;;
4353;SDS011;11018;51.258;6.806;2023-05-07T04:57:26;4.20;;;3.58;;
4353;SDS011;11018;51.258;6.806;2023-05-07T04:59:52;5.53;;;4.10;;
4353;SDS011;11018;51.258;6.806;2023-05-07T05:02:18;6.50;;;3.87;;
4353;SDS011;11018;51.258;6.806;2023-05-07T05:04:43;6.53;;;4.10;;
4353;SDS011;11018;51.258;6.806;2023-05-07T05:07:09;5.50;;;3.70;;
4353;SDS011;11018;51.258;6.806;2023-05-07T05:09:35;6.60;;;3.50;;
4353;SDS011;11018;51.258;6.806;2023-05-07T05:12:00;6.30;;;4.15;;
4353;SDS011;11018;51.258;6.806;2023-05-07T05:14:26;3.43;;;3.13;;
4353;SDS011;11018;51.258;6.806;2023-05-07T05:16:51;6.30;;;3.67;;
4353;SDS011;11018;51.258;6.806;2023-05-07T05:19:17;5.13;;;3.60;;
4353;SDS011;11018;51.258;6.806;2023-05-07T05:21:42;3.40;;;3.10;;
4353;SDS011;11018;51.258;6.806;2023-05-07T05:24:08;7.93;;;3.93;;
4353;SDS011;11018;51.258;6.806;2023-05-07T05:26:34;4.78;;;3.45;;
4353;SDS011;11018;51.258;6.806;2023-05-07T05:28:59;3.58;;;3.20;;
4353;SDS011;11018;51.258;6.806;2023-05-07T05:31:25;4.50;;;3.90;;
4353;SDS011;11018;51.258;6.806;2023-05-07T05:33:50;6.20;;;4.63;;
4353;SDS011;11018;51.258;6.806;2023-05-07T05:36:16;5.80;;;3.70;;
4353;SDS011;11018;51.258;6.806;2023-05-07T05:38:42;5.22;;;3.35;;
4353;SDS011;11018;51.258;6.806;2023-05-07T05:41:07;5.55;;;3.10;;
4353;SDS011;11018;51.258;6.806;2023-05-07T05:43:33;8.23;;;3.40;;
4353;SDS011;11018;51.258;6.806;2023-05-07T05:45:59;4.47;;;3.40;;
4353;SDS011;11018;51.258;6.806;2023-05-07T05:48:25;3.40;;;3.10;;
4353;SDS011;11018;51.258;6.806;2023-05-07T05:50:50;5.83;;;3.40;;
4353;SDS011;11018;51.258;6.806;2023-05-07T05:53:16;6.50;;;3.47;;
4353;SDS011;11018;51.258;6.806;2023-05-07T05:55:42;5.07;;;3.08;;
4353;SDS011;11018;51.258;6.806;2023-05-07T05:58:08;4.70;;;3.20;;
4353;SDS011;11018;51.258;6.806;2023-05-07T06:00:34;4.05;;;3.10;;
4353;SDS011;11018;51.258;6.806;2023-05-07T06:03:00;3.63;;;3.30;;
4353;SDS011;11018;51.258;6.806;2023-05-07T06:05:25;4.90;;;2.83;;
4353;SDS011;11018;51.258;6.806;2023-05-07T06:07:51;11.70;;;2.93;;
4353;SDS011;11018;51.258;6.806;2023-05-07T06:10:16;7.25;;;3.30;;
4353;SDS011;11018;51.258;6.806;2023-05-07T06:12:42;4.50;;;2.63;;
4353;SDS011;11018;51.258;6.806;2023-05-07T06:15:08;4.10;;;2.43;;
4353;SDS011;11018;51.258;6.806;2023-05-07T06:17:33;4.73;;;3.00;;
4353;SDS011;11018;51.258;6.806;2023-05-07T06:19:59;5.05;;;2.95;;
4353;SDS011;11018;51.258;6.806;2023-05-07T06:22:25;3.30;;;2.50;;
4353;SDS011;11018;51.258;6.806;2023-05-07T06:24:50;5.43;;;2.70;;
4353;SDS011;11018;51.258;6.806;2023-05-07T06:27:16;4.87;;;2.77;;
4353;SDS011;11018;51.258;6.806;2023-05-07T06:29:41;3.90;;;2.60;;
4353;SDS011;11018;51.258;6.806;2023-05-07T06:32:08;4.80;;;2.50;;
4353;SDS011;11018;51.258;6.806;2023-05-07T06:34:34;4.30;;;2.70;;
4353;SDS011;11018;51.258;6.806;2023-05-07T06:36:59;4.88;;;3.10;;
4353;SDS011;11018;51.258;6.806;2023-05-07T06:39:25;4.57;;;2.70;;
4353;SDS011;11018;51.258;6.806;2023-05-07T06:41:50;4.70;;;2.60;;
4353;SDS011;11018;51.258;6.806;2023-05-07T06:44:16;3.55;;;2.83;;
4353;SDS011;11018;51.258;6.806;2023-05-07T06:46:41;3.03;;;2.60;;
4353;SDS011;11018;51.258;6.806;2023-05-07T06:49:07;3.13;;;2.50;;
4353;SDS011;11018;51.258;6.806;2023-05-07T06:51:33;3.70;;;2.50;;
4353;SDS011;11018;51.258;6.806;2023-05-07T06:53:58;3.10;;;2.60;;
4353;SDS011;11018;51.258;6.806;2023-05-07T06:56:24;4.25;;;2.78;;
4353;SDS011;11018;51.258;6.806;2023-05-07T06:58:50;4.03;;;2.63;;
4353;SDS011;11018;51.258;6.806;2023-05-07T07:01:15;2.97;;;2.30;;
4353;SDS011;11018;51.258;6.806;2023-05-07T07:03:41;6.80;;;2.30;;
4353;SDS011;11018;51.258;6.806;2023-05-07T07:06:06;4.88;;;2.30;;
4353;SDS011;11018;51.258;6.806;2023-05-07T07:08:32;3.60;;;2.30;;
4353;SDS011;11018;51.258;6.806;2023-05-07T07:10:58;4.28;;;2.50;;
4353;SDS011;11018;51.258;6.806;2023-05-07T07:13:23;4.03;;;3.20;;
4353;SDS011;11018;51.258;6.806;2023-05-07T07:15:49;4.47;;;2.27;;
4353;SDS011;11018;51.258;6.806;2023-05-07T07:18:14;3.40;;;2.42;;
4353;SDS011;11018;51.258;6.806;2023-05-07T07:20:40;5.40;;;2.37;;
4353;SDS011;11018;51.258;6.806;2023-05-07T07:23:06;4.70;;;2.50;;
4353;SDS011;11018;51.258;6.806;2023-05-07T07:25:31;7.43;;;2.47;;
4353;SDS011;11018;51.258;6.806;2023-05-07T07:27:57;3.53;;;2.10;;
4353;SDS011;11018;51.258;6.806;2023-05-07T07:30:22;2.40;;;2.20;;
4353;SDS011;11018;51.258;6.806;2023-05-07T07:32:48;3.50;;;2.60;;
4353;SDS011;11018;51.258;6.806;2023-05-07T07:35:14;6.60;;;2.83;;
4353;SDS011;11018;51.258;6.806;2023-05-07T07:37:39;3.17;;;2.33;;
4353;SDS011;11018;51.258;6.806;2023-05-07T07:40:05;5.47;;;2.73;;
4353;SDS011;11018;51.258;6.806;2023-05-07T07:42:31;3.45;;;2.65;;
4353;SDS011;11018;51.258;6.806;2023-05-07T07:44:57;3.50;;;2.40;;
4353;SDS011;11018;51.258;6.806;2023-05-07T07:47:22;5.00;;;3.20;;
4353;SDS011;11018;51.258;6.806;2023-05-07T07:49:48;5.70;;;3.00;;
4353;SDS011;11018;51.258;6.806;2023-05-07T07:52:13;3.47;;;2.80;;
4353;SDS011;11018;51.258;6.806;2023-05-07T07:54:39;6.63;;;3.63;;
4353;SDS011;11018;51.258;6.806;2023-05-07T07:57:05;5.50;;;3.70;;
4353;SDS011;11018;51.258;6.806;2023-05-07T07:59:30;4.65;;;2.60;;
4353;SDS011;11018;51.258;6.806;2023-05-07T08:01:56;5.97;;;2.43;;
4353;SDS011;11018;51.258;6.806;2023-05-07T08:04:22;3.33;;;2.88;;
4353;SDS011;11018;51.258;6.806;2023-05-07T08:06:47;2.80;;;2.10;;
4353;SDS011;11018;51.258;6.806;2023-05-07T08:09:13;3.60;;;2.90;;
4353;SDS011;11018;51.258;6.806;2023-05-07T08:11:39;6.55;;;2.60;;
4353;SDS011;11018;51.258;6.806;2023-05-07T08:14:05;4.77;;;2.80;;
4353;SDS011;11018;51.258;6.806;2023-05-07T08:16:30;7.40;;;2.47;;
4353;SDS011;11018;51.258;6.806;2023-05-07T08:18:56;4.75;;;2.70;;
4353;SDS011;11018;51.258;6.806;2023-05-07T08:21:22;3.17;;;2.83;;
4353;SDS011;11018;51.258;6.806;2023-05-07T08:23:48;3.40;;;2.23;;
4353;SDS011;11018;51.258;6.806;2023-05-07T08:26:13;7.40;;;2.87;;
4353;SDS011;11018;51.258;6.806;2023-05-07T08:28:39;3.90;;;2.30;;
4353;SDS011;11018;51.258;6.806;2023-05-07T08:31:05;7.20;;;2.30;;
4353;SDS011;11018;51.258;6.806;2023-05-07T08:33:30;3.30;;;2.10;;
4353;SDS011;11018;51.258;6.806;2023-05-07T08:35:56;4.00;;;2.20;;
4353;SDS011;11018;51.258;6.806;2023-05-07T08:38:22;6.57;;;2.97;;
4353;SDS011;11018;51.258;6.806;2023-05-07T08:40:47;4.10;;;2.20;;
4353;SDS011;11018;51.258;6.806;2023-05-07T08:43:13;3.58;;;2.40;;
4353;SDS011;11018;51.258;6.806;2023-05-07T08:45:40;5.20;;;1.90;;
4353;SDS011;11018;51.258;6.806;2023-05-07T08:48:08;4.63;;;2.30;;
4353;SDS011;11018;51.258;6.806;2023-05-07T08:50:39;4.30;;;2.75;;
4353;SDS011;11018;51.258;6.806;2023-05-07T08:53:04;2.85;;;2.47;;
4353;SDS011;11018;51.258;6.806;2023-05-07T08:55:30;3.88;;;2.55;;
4353;SDS011;11018;51.258;6.806;2023-05-07T08:57:56;3.70;;;2.10;;
4353;SDS011;11018;51.258;6.806;2023-05-07T09:00:21;6.13;;;2.13;;
4353;SDS011;11018;51.258;6.806;2023-05-07T09:02:47;2.10;;;1.90;;
4353;SDS011;11018;51.258;6.806;2023-05-07T09:05:13;5.63;;;2.20;;
4353;SDS011;11018;51.258;6.806;2023-05-07T09:07:39;6.90;;;2.90;;
4353;SDS011;11018;51.258;6.806;2023-05-07T09:10:04;2.97;;;2.07;;
4353;SDS011;11018;51.258;6.806;2023-05-07T09:12:31;2.67;;;1.90;;
4353;SDS011;11018;51.258;6.806;2023-05-07T09:14:57;6.60;;;2.20;;
4353;SDS011;11018;51.258;6.806;2023-05-07T09:17:23;2.28;;;1.70;;
4353;SDS011;11018;51.258;6.806;2023-05-07T09:19:49;3.90;;;2.10;;
4353;SDS011;11018;51.258;6.806;2023-05-07T09:22:15;2.80;;;2.35;;
4353;SDS011;11018;51.258;6.806;2023-05-07T09:24:41;5.07;;;2.63;;
4353;SDS011;11018;51.258;6.806;2023-05-07T09:27:16;3.78;;;2.10;;
4353;SDS011;11018;51.258;6.806;2023-05-07T09:29:43;3.80;;;2.55;;
4353;SDS011;11018;51.258;6.806;2023-05-07T09:32:09;4.95;;;3.30;;
4353;SDS011;11018;51.258;6.806;2023-05-07T09:34:35;4.40;;;3.28;;
4353;SDS011;11018;51.258;6.806;2023-05-07T09:37:01;5.13;;;2.97;;
4353;SDS011;11018;51.258;6.806;2023-05-07T09:39:44;4.43;;;2.40;;
4353;SDS011;11018;51.258;6.806;2023-05-07T09:42:11;2.65;;;2.10;;
4353;SDS011;11018;51.258;6.806;2023-05-07T09:44:38;5.30;;;2.40;;
4353;SDS011;11018;51.258;6.806;2023-05-07T09:47:04;3.33;;;2.00;;
4353;SDS011;11018;51.258;6.806;2023-05-07T09:49:32;3.03;;;2.70;;
4353;SDS011;11018;51.258;6.806;2023-05-07T09:52:00;4.95;;;2.55;;
4353;SDS011;11018;51.258;6.806;2023-05-07T09:54:26;8.40;;;2.30;;
4353;SDS011;11018;51.258;6.806;2023-05-07T09:56:55;3.03;;;2.20;;
4353;SDS011;11018;51.258;6.806;2023-05-07T09:59:22;2.63;;;2.08;;
4353;SDS011;11018;51.258;6.806;2023-05-07T10:01:48;3.38;;;1.85;;
4353;SDS011;11018;51.258;6.806;2023-05-07T10:04:15;2.72;;;1.90;;
4353;SDS011;11018;51.258;6.806;2023-05-07T10:06:41;4.15;;;2.05;;
4353;SDS011;11018;51.258;6.806;2023-05-07T10:09:08;5.55;;;2.20;;
4353;SDS011;11018;51.258;6.806;2023-05-07T10:11:36;3.60;;;2.13;;
4353;SDS011;11018;51.258;6.806;2023-05-07T10:14:02;3.10;;;2.53;;
4353;SDS011;11018;51.258;6.806;2023-05-07T10:16:33;2.78;;;2.10;;
4353;SDS011;11018;51.258;6.806;2023-05-07T10:19:04;2.72;;;1.80;;
4353;SDS011;11018;51.258;6.806;2023-05-07T10:21:31;3.00;;;2.30;;
4353;SDS011;11018;51.258;6.806;2023-05-07T10:24:05;3.03;;;2.10;;
4353;SDS011;11018;51.258;6.806;2023-05-07T10:26:42;4.20;;;2.50;;
4353;SDS011;11018;51.258;6.806;2023-05-07T10:29:53;3.22;;;2.40;;
4353;SDS011;11018;51.258;6.806;2023-05-07T10:32:16;6.60;;;2.90;;
4353;SDS011;11018;51.258;6.806;2023-05-07T10:34:43;3.53;;;1.80;;
4353;SDS011;11018;51.258;6.806;2023-05-07T10:37:12;4.97;;;2.63;;
4353;SDS011;11018;51.258;6.806;2023-05-07T10:39:38;2.70;;;1.70;;
4353;SDS011;11018;51.258;6.806;2023-05-07T10:42:07;3.15;;;1.90;;
4353;SDS011;11018;51.258;6.806;2023-05-07T10:44:37;3.90;;;2.33;;
4353;SDS011;11018;51.258;6.806;2023-05-07T10:47:03;2.30;;;2.00;;
4353;SDS011;11018;51.258;6.806;2023-05-07T10:49:30;3.60;;;2.08;;
4353;SDS011;11018;51.258;6.806;2023-05-07T10:54:45;5.30;;;2.30;;
4353;SDS011;11018;51.258;6.806;2023-05-07T11:00:00;3.95;;;1.90;;
4353;SDS011;11018;51.258;6.806;2023-05-07T11:05:31;2.50;;;2.00;;
4353;SDS011;11018;51.258;6.806;2023-05-07T11:07:58;3.38;;;1.60;;
4353;SDS011;11018;51.258;6.806;2023-05-07T11:13:13;2.60;;;1.70;;
4353;SDS011;11018;51.258;6.806;2023-05-07T11:15:40;3.95;;;1.73;;
4353;SDS011;11018;51.258;6.806;2023-05-07T11:18:08;2.85;;;1.42;;
4353;SDS011;11018;51.258;6.806;2023-05-07T11:21:07;4.97;;;1.70;;
4353;SDS011;11018;51.258;6.806;2023-05-07T11:25:59;2.73;;;1.70;;
4353;SDS011;11018;51.258;6.806;2023-05-07T11:28:36;1.95;;;1.50;;
4353;SDS011;11018;51.258;6.806;2023-05-07T11:31:03;2.40;;;1.50;;
4353;SDS011;11018;51.258;6.806;2023-05-07T11:33:29;2.17;;;1.60;;
4353;SDS011;11018;51.258;6.806;2023-05-07T11:35:56;2.97;;;1.40;;
4353;SDS011;11018;51.258;6.806;2023-05-07T11:38:22;2.80;;;1.60;;
4353;SDS011;11018;51.258;6.806;2023-05-07T11:40:58;3.90;;;2.10;;
4353;SDS011;11018;51.258;6.806;2023-05-07T11:43:29;2.58;;;1.95;;
4353;SDS011;11018;51.258;6.806;2023-05-07T11:45:54;4.28;;;1.45;;
4353;SDS011;11018;51.258;6.806;2023-05-07T11:48:29;3.05;;;2.00;;
4353;SDS011;11018;51.258;6.806;2023-05-07T11:53:27;3.03;;;2.00;;
4353;SDS011;11018;51.258;6.806;2023-05-07T11:55:56;2.83;;;1.55;;
4353;SDS011;11018;51.258;6.806;2023-05-07T11:58:22;3.10;;;1.90;;
4353;SDS011;11018;51.258;6.806;2023-05-07T12:00:53;2.92;;;1.70;;
4353;SDS011;11018;51.258;6.806;2023-05-07T12:03:19;2.10;;;1.73;;
4353;SDS011;11018;51.258;6.806;2023-05-07T12:05:47;3.45;;;2.05;;
4353;SDS011;11018;51.258;6.806;2023-05-07T12:08:14;3.20;;;1.70;;
4353;SDS011;11018;51.258;6.806;2023-05-07T12:10:41;2.38;;;1.70;;
4353;SDS011;11018;51.258;6.806;2023-05-07T12:13:14;3.92;;;1.73;;
4353;SDS011;11018;51.258;6.806;2023-05-07T12:15:43;2.50;;;1.80;;
4353;SDS011;11018;51.258;6.806;2023-05-07T12:18:10;1.90;;;1.52;;
4353;SDS011;11018;51.258;6.806;2023-05-07T12:20:36;3.90;;;1.80;;
4353;SDS011;11018;51.258;6.806;2023-05-07T12:23:02;3.95;;;2.15;;
4353;SDS011;11018;51.258;6.806;2023-05-07T12:25:31;4.25;;;1.80;;
4353;SDS011;11018;51.258;6.806;2023-05-07T12:28:04;3.97;;;1.85;;
4353;SDS011;11018;51.258;6.806;2023-05-07T12:30:31;2.83;;;2.20;;
4353;SDS011;11018;51.258;6.806;2023-05-07T12:33:01;2.90;;;1.80;;
4353;SDS011;11018;51.258;6.806;2023-05-07T12:35:27;2.47;;;1.90;;
4353;SDS011;11018;51.258;6.806;2023-05-07T12:37:57;3.83;;;2.00;;
4353;SDS011;11018;51.258;6.806;2023-05-07T12:40:24;4.40;;;2.00;;
4353;SDS011;11018;51.258;6.806;2023-05-07T12:43:05;2.30;;;1.75;;
4353;SDS011;11018;51.258;6.806;2023-05-07T12:45:31;3.97;;;1.90;;
4353;SDS011;11018;51.258;6.806;2023-05-07T12:48:03;3.88;;;2.00;;
4353;SDS011;11018;51.258;6.806;2023-05-07T12:50:32;3.00;;;2.10;;
4353;SDS011;11018;51.258;6.806;2023-05-07T12:52:58;5.28;;;2.40;;
4353;SDS011;11018;51.258;6.806;2023-05-07T12:55:24;3.33;;;1.90;;
4353;SDS011;11018;51.258;6.806;2023-05-07T12:57:50;5.25;;;2.30;;
4353;SDS011;11018;51.258;6.806;2023-05-07T13:00:17;3.65;;;1.75;;
4353;SDS011;11018;51.258;6.806;2023-05-07T13:02:58;2.53;;;1.80;;
4353;SDS011;11018;51.258;6.806;2023-05-07T13:05:23;3.33;;;2.05;;
4353;SDS011;11018;51.258;6.806;2023-05-07T13:07:53;3.17;;;2.03;;
4353;SDS011;11018;51.258;6.806;2023-05-07T13:10:19;5.28;;;2.00;;
4353;SDS011;11018;51.258;6.806;2023-05-07T13:12:45;4.07;;;2.20;;
4353;SDS011;11018;51.258;6.806;2023-05-07T13:15:10;5.60;;;2.57;;
4353;SDS011;11018;51.258;6.806;2023-05-07T13:17:36;4.65;;;2.50;;
4353;SDS011;11018;51.258;6.806;2023-05-07T13:20:01;5.97;;;3.33;;
4353;SDS011;11018;51.258;6.806;2023-05-07T13:22:27;5.63;;;3.25;;
4353;SDS011;11018;51.258;6.806;2023-05-07T13:24:53;5.85;;;3.28;;
4353;SDS011;11018;51.258;6.806;2023-05-07T13:27:18;4.53;;;3.30;;
4353;SDS011;11018;51.258;6.806;2023-05-07T13:29:45;6.50;;;3.30;;
4353;SDS011;11018;51.258;6.806;2023-05-07T13:32:10;6.70;;;3.38;;
4353;SDS011;11018;51.258;6.806;2023-05-07T13:34:36;7.67;;;3.53;;
4353;SDS011;11018;51.258;6.806;2023-05-07T13:37:02;3.35;;;2.60;;
4353;SDS011;11018;51.258;6.806;2023-05-07T13:39:27;2.10;;;1.60;;
4353;SDS011;11018;51.258;6.806;2023-05-07T13:41:53;5.00;;;1.80;;
4353;SDS011;11018;51.258;6.806;2023-05-07T13:44:18;5.50;;;2.10;;
4353;SDS011;11018;51.258;6.806;2023-05-07T13:46:44;3.00;;;2.30;;
4353;SDS011;11018;51.258;6.806;2023-05-07T13:49:10;3.00;;;2.10;;
4353;SDS011;11018;51.258;6.806;2023-05-07T13:51:36;3.50;;;2.70;;
4353;SDS011;11018;51.258;6.806;2023-05-07T13:54:01;5.88;;;3.33;;
4353;SDS011;11018;51.258;6.806;2023-05-07T13:56:27;4.93;;;3.20;;
4353;SDS011;11018;51.258;6.806;2023-05-07T13:58:55;5.10;;;3.70;;
4353;SDS011;11018;51.258;6.806;2023-05-07T14:01:21;8.70;;;4.70;;
4353;SDS011;11018;51.258;6.806;2023-05-07T14:03:46;9.35;;;5.47;;
4353;SDS011;11018;51.258;6.806;2023-05-07T14:06:12;10.47;;;6.43;;
4353;SDS011;11018;51.258;6.806;2023-05-07T14:08:38;10.60;;;6.00;;
4353;SDS011;11018;51.258;6.806;2023-05-07T14:11:03;11.40;;;7.40;;
4353;SDS011;11018;51.258;6.806;2023-05-07T14:13:29;10.65;;;6.30;;
4353;SDS011;11018;51.258;6.806;2023-05-07T14:15:55;14.35;;;7.70;;
4353;SDS011;11018;51.258;6.806;2023-05-07T14:18:21;9.48;;;6.00;;
4353;SDS011;11018;51.258;6.806;2023-05-07T14:20:47;8.45;;;6.40;;
4353;SDS011;11018;51.258;6.806;2023-05-07T14:23:13;12.27;;;5.90;;
4353;SDS011;11018;51.258;6.806;2023-05-07T14:25:39;17.27;;;8.07;;
4353;SDS011;11018;51.258;6.806;2023-05-07T14:28:05;13.10;;;9.00;;
4353;SDS011;11018;51.258;6.806;2023-05-07T14:30:31;17.63;;;9.10;;
4353;SDS011;11018;51.258;6.806;2023-05-07T14:32:56;16.52;;;9.13;;
4353;SDS011;11018;51.258;6.806;2023-05-07T14:35:22;11.30;;;7.27;;
4353;SDS011;11018;51.258;6.806;2023-05-07T14:37:47;8.73;;;5.97;;
4353;SDS011;11018;51.258;6.806;2023-05-07T14:40:13;8.55;;;5.85;;
4353;SDS011;11018;51.258;6.806;2023-05-07T14:42:39;8.27;;;4.95;;
4353;SDS011;11018;51.258;6.806;2023-05-07T14:45:05;7.07;;;5.20;;
4353;SDS011;11018;51.258;6.806;2023-05-07T14:47:31;7.00;;;5.30;;
4353;SDS011;11018;51.258;6.806;2023-05-07T14:49:57;12.90;;;6.97;;
4353;SDS011;11018;51.258;6.806;2023-05-07T14:52:23;11.20;;;7.50;;
4353;SDS011;11018;51.258;6.806;2023-05-07T14:54:48;15.93;;;9.93;;
4353;SDS011;11018;51.258;6.806;2023-05-07T14:57:14;10.90;;;7.57;;
4353;SDS011;11018;51.258;6.806;2023-05-07T14:59:41;13.25;;;8.13;;
4353;SDS011;11018;51.258;6.806;2023-05-07T15:02:07;10.87;;;6.67;;
4353;SDS011;11018;51.258;6.806;2023-05-07T15:04:41;9.85;;;7.25;;
4353;SDS011;11018;51.258;6.806;2023-05-07T15:07:11;9.10;;;7.40;;
4353;SDS011;11018;51.258;6.806;2023-05-07T15:09:39;13.70;;;8.40;;
4353;SDS011;11018;51.258;6.806;2023-05-07T15:12:06;15.65;;;10.13;;